Ebroborg — PCGH — position and weather

sailwx.info

Track history (hours):
 
Tides and Currents Weather Stations Pressure Air Temp Water Temp Dewpoint Dewpoint Depression Visibility Wind Speed Wind Dir Waves Ship Positions

Ebroborg

Last reported at 2018-Feb-17 12:48 UTC. Time now 2018-Feb-19 02:01 UTC.
Position N 39°21' W 009°51'.

Length 138 m; draft 8.1 m.

Type: Cargo ship. MMSI: 245952000.

Date/timePositionNaut miles runAvg speedWind from/ knotsBaromVisibWave heightAir tempDewpointWater temp
2018-Feb-17 12:48N 39°21' W 009°51'310.1
2018-Feb-17 12:30N 39°18' W 009°51'5 9.8
2018-Feb-17 12:00N 39°13' W 009°51'5 9.9
2018-Feb-17 11:29N 39°08' W 009°51'510.1
2018-Feb-17 11:00N 39°03' W 009°51'510.3
2018-Feb-17 10:30N 38°58' W 009°51'510.4
2018-Feb-17 10:00N 38°52' W 009°52'510.7
2018-Feb-17 09:30N 38°47' W 009°51'510.8
2018-Feb-17 09:00N 38°42' W 009°51'510.9
2018-Feb-17 08:30N 38°36' W 009°49'610.7
2018-Feb-17 07:59N 38°31' W 009°48'510.6
2018-Feb-17 07:30N 38°26' W 009°46'510.5
2018-Feb-17 07:00N 38°21' W 009°45'510.5
2018-Feb-17 06:30N 38°16' W 009°44'610.7
2018-Feb-17 05:56N 38°10' W 009°42'510.7
2018-Feb-17 05:30N 38°05' W 009°40'510.6
2018-Feb-17 05:00N 38°00' W 009°38'810.7
2018-Feb-17 04:17N 37°53' W 009°36'310.5
2018-Feb-17 04:00N 37°50' W 009°35'510.5
2018-Feb-17 03:30N 37°45' W 009°34'510.5
2018-Feb-17 03:00N 37°40' W 009°33'76 9.5
2018-Feb-16 19:00N 36°37' W 008°40'  
Track history (hours):
 
Tides and Currents Weather Stations Pressure Air Temp Water Temp Dewpoint Dewpoint Depression Visibility Wind Speed Wind Dir Waves Ship Positions

Ebroborg

Last reported at 2018-Feb-17 12:48 UTC. Time now 2018-Feb-19 02:01 UTC.
Position N 39°21' W 009°51'.

Length 138 m; draft 8.1 m.

Type: Cargo ship. MMSI: 245952000.

Date/timePositionNaut miles runAvg speedWind from/ knotsBaromVisibWave heightAir tempDewpointWater temp
2018-Feb-17 12:48N 39°21' W 009°51'310.1
2018-Feb-17 12:30N 39°18' W 009°51'5 9.8
2018-Feb-17 12:00N 39°13' W 009°51'5 9.9
2018-Feb-17 11:29N 39°08' W 009°51'510.1
2018-Feb-17 11:00N 39°03' W 009°51'510.3
2018-Feb-17 10:30N 38°58' W 009°51'510.4
2018-Feb-17 10:00N 38°52' W 009°52'510.7
2018-Feb-17 09:30N 38°47' W 009°51'510.8
2018-Feb-17 09:00N 38°42' W 009°51'510.9
2018-Feb-17 08:30N 38°36' W 009°49'610.7
2018-Feb-17 07:59N 38°31' W 009°48'510.6
2018-Feb-17 07:30N 38°26' W 009°46'510.5
2018-Feb-17 07:00N 38°21' W 009°45'510.5
2018-Feb-17 06:30N 38°16' W 009°44'610.7
2018-Feb-17 05:56N 38°10' W 009°42'510.7
2018-Feb-17 05:30N 38°05' W 009°40'510.6
2018-Feb-17 05:00N 38°00' W 009°38'810.7
2018-Feb-17 04:17N 37°53' W 009°36'310.5
2018-Feb-17 04:00N 37°50' W 009°35'510.5
2018-Feb-17 03:30N 37°45' W 009°34'510.5
2018-Feb-17 03:00N 37°40' W 009°33'76 9.5
2018-Feb-16 19:00N 36°37' W 008°40'  

Dump ship's entire track history